Weather at Fursatganj Airport

Public forecast

Using degrees Celsius for public forecast. Weather courtesy of forecast.io.

Closest aviation weather report (METAR) to Fursatganj Airport

Closest report is Chaudhary Charan Singh International Airport, 40.5 nm (75.0 km) NW. Retrieved 2020/09/21 18:30 UTC (0 seconds ago):

VILK 211830Z 09006KT 4000 BR SCT020 SCT200 28/26 Q1001 NOSIG

Closest aviation forecast (TAF) to Fursatganj Airport

Closest forecast is Chaudhary Charan Singh International Airport, 40.5 nm (75.0 km) NW. Retrieved 2020/09/21 18:00 UTC (29 minutes ago):

TAF VILK 211700Z 2118/2224 09005KT 4000 BR SCT020 SCT100 BECMG 2120/2122 VRB02KT 3000 BR SCT020 SCT025 TEMPO 2120/2124 2000 -TSRA -RA FEW030CB OVC090 BECMG 2204/2206 09010KT 5000 HZ SCT020 SCT025 BKN100 TEMPO 2208/2212 2000 -TSRA -RA FEW030CB OVC090 BECMG 2218/2220 09005KT 3000 BR SCT020 BKN100